sensor_id;sensor_type;location;lat;lon;timestamp;pressure;altitude;pressure_sealevel;temperature;humidity
21879;BME280;27908;42.708;23.278;2023-08-24T00:00:30;50163.06;;;-136.69;67.20
21879;BME280;27908;42.708;23.278;2023-08-24T00:02:57;50204.41;;;-136.69;67.58
21879;BME280;27908;42.708;23.278;2023-08-24T00:05:23;50220.16;;;-136.69;67.12
21879;BME280;27908;42.708;23.278;2023-08-24T00:07:48;50165.03;;;-136.69;67.92
21879;BME280;27908;42.708;23.278;2023-08-24T00:10:14;50174.88;;;-136.69;67.69
21879;BME280;27908;42.708;23.278;2023-08-24T00:12:40;50135.50;;;-136.69;67.66
21879;BME280;27908;42.708;23.278;2023-08-24T00:15:08;50172.91;;;-136.69;67.85
21879;BME280;27908;42.708;23.278;2023-08-24T00:17:34;50147.31;;;-136.69;67.76
21879;BME280;27908;42.708;23.278;2023-08-24T00:20:00;50167.00;;;-136.69;68.08
21879;BME280;27908;42.708;23.278;2023-08-24T00:22:29;50174.88;;;-136.69;67.91
21879;BME280;27908;42.708;23.278;2023-08-24T00:24:55;50182.75;;;-136.69;67.78
21879;BME280;27908;42.708;23.278;2023-08-24T00:27:20;50155.19;;;-136.69;67.88
21879;BME280;27908;42.708;23.278;2023-08-24T00:29:46;50159.13;;;-136.69;67.94
21879;BME280;27908;42.708;23.278;2023-08-24T00:32:11;50145.34;;;-136.69;69.54
21879;BME280;27908;42.708;23.278;2023-08-24T00:34:37;50139.44;;;-136.69;69.57
21879;BME280;27908;42.708;23.278;2023-08-24T00:37:02;50161.09;;;-136.69;69.42
21879;BME280;27908;42.708;23.278;2023-08-24T00:39:28;50159.13;;;-136.69;69.42
21879;BME280;27908;42.708;23.278;2023-08-24T00:41:54;50182.75;;;-136.69;69.67
21879;BME280;27908;42.708;23.278;2023-08-24T00:44:19;50111.88;;;-136.69;68.96
21879;BME280;27908;42.708;23.278;2023-08-24T00:46:45;50167.00;;;-136.69;69.56
21879;BME280;27908;42.708;23.278;2023-08-24T00:49:10;50155.19;;;-136.69;69.75
21879;BME280;27908;42.708;23.278;2023-08-24T00:51:37;50143.38;;;-136.69;69.95
21879;BME280;27908;42.708;23.278;2023-08-24T00:54:03;50155.19;;;-136.69;69.74
21879;BME280;27908;42.708;23.278;2023-08-24T00:56:28;50131.56;;;-136.69;70.01
21879;BME280;27908;42.708;23.278;2023-08-24T00:58:56;50139.44;;;-136.69;71.38
21879;BME280;27908;42.708;23.278;2023-08-24T01:01:22;50098.06;;;-136.69;72.16
21879;BME280;27908;42.708;23.278;2023-08-24T01:03:47;50125.66;;;-136.69;72.34
21879;BME280;27908;42.708;23.278;2023-08-24T01:06:13;50147.31;;;-136.69;72.07
21879;BME280;27908;42.708;23.278;2023-08-24T01:08:38;50149.28;;;-136.69;72.14
21879;BME280;27908;42.708;23.278;2023-08-24T01:11:33;50125.66;;;-136.69;72.05
21879;BME280;27908;42.708;23.278;2023-08-24T01:16:46;50117.78;;;-136.69;73.57
21879;BME280;27908;42.708;23.278;2023-08-24T01:19:25;50103.97;;;-136.69;73.66
21879;BME280;27908;42.708;23.278;2023-08-24T01:21:54;50094.13;;;-136.69;73.57
21879;BME280;27908;42.708;23.278;2023-08-24T01:24:45;50119.75;;;-136.69;73.75
21879;BME280;27908;42.708;23.278;2023-08-24T01:27:13;50084.28;;;-136.69;73.68
21879;BME280;27908;42.708;23.278;2023-08-24T01:29:39;50133.53;;;-136.69;73.60
21879;BME280;27908;42.708;23.278;2023-08-24T01:32:09;50088.22;;;-136.69;74.26
21879;BME280;27908;42.708;23.278;2023-08-24T01:34:37;50094.13;;;-136.69;74.41
21879;BME280;27908;42.708;23.278;2023-08-24T01:37:04;50107.91;;;-136.69;74.49
21879;BME280;27908;42.708;23.278;2023-08-24T01:39:37;50088.22;;;-136.69;74.44
21879;BME280;27908;42.708;23.278;2023-08-24T01:42:07;50084.28;;;-136.69;74.75
21879;BME280;27908;42.708;23.278;2023-08-24T01:44:37;50143.38;;;-136.69;74.42
21879;BME280;27908;42.708;23.278;2023-08-24T01:47:05;50129.59;;;-136.69;74.49
21879;BME280;27908;42.708;23.278;2023-08-24T01:49:33;50102.00;;;-136.69;74.36
21879;BME280;27908;42.708;23.278;2023-08-24T01:52:00;50074.44;;;-136.69;74.91
21879;BME280;27908;42.708;23.278;2023-08-24T01:54:27;50076.41;;;-136.69;75.01
21879;BME280;27908;42.708;23.278;2023-08-24T01:56:52;50107.91;;;-136.69;75.42
21879;BME280;27908;42.708;23.278;2023-08-24T01:59:18;50096.09;;;-136.69;75.82
21879;BME280;27908;42.708;23.278;2023-08-24T02:01:43;50092.16;;;-136.69;75.76
21879;BME280;27908;42.708;23.278;2023-08-24T02:04:08;50072.47;;;-136.69;76.18
21879;BME280;27908;42.708;23.278;2023-08-24T02:06:34;50068.53;;;-136.69;75.78
21879;BME280;27908;42.708;23.278;2023-08-24T02:08:59;50084.28;;;-136.69;75.52
21879;BME280;27908;42.708;23.278;2023-08-24T02:11:25;50094.13;;;-136.69;75.52
21879;BME280;27908;42.708;23.278;2023-08-24T02:13:50;50098.06;;;-136.69;75.27
21879;BME280;27908;42.708;23.278;2023-08-24T02:16:16;50076.41;;;-136.69;75.89
21879;BME280;27908;42.708;23.278;2023-08-24T02:18:41;50084.28;;;-136.69;75.62
21879;BME280;27908;42.708;23.278;2023-08-24T02:21:10;50100.03;;;-136.69;75.59
21879;BME280;27908;42.708;23.278;2023-08-24T02:23:37;50084.28;;;-136.69;75.58
21879;BME280;27908;42.708;23.278;2023-08-24T02:26:03;50084.28;;;-136.69;76.14
21879;BME280;27908;42.708;23.278;2023-08-24T02:28:30;50082.31;;;-136.69;76.34
21879;BME280;27908;42.708;23.278;2023-08-24T02:31:00;50072.47;;;-136.69;77.43
21879;BME280;27908;42.708;23.278;2023-08-24T02:33:25;50031.13;;;-136.69;77.41
21879;BME280;27908;42.708;23.278;2023-08-24T02:35:51;50088.22;;;-136.69;77.89
21879;BME280;27908;42.708;23.278;2023-08-24T02:38:16;50084.28;;;-136.69;78.01
21879;BME280;27908;42.708;23.278;2023-08-24T02:40:42;50092.16;;;-136.69;77.96
21879;BME280;27908;42.708;23.278;2023-08-24T02:43:07;50088.22;;;-136.69;78.00
21879;BME280;27908;42.708;23.278;2023-08-24T02:45:33;50070.50;;;-136.69;78.33
21879;BME280;27908;42.708;23.278;2023-08-24T02:47:58;50060.66;;;-136.69;78.69
21879;BME280;27908;42.708;23.278;2023-08-24T02:50:23;50062.63;;;-136.69;78.83
21879;BME280;27908;42.708;23.278;2023-08-24T02:52:49;50096.09;;;-136.69;78.58
21879;BME280;27908;42.708;23.278;2023-08-24T02:55:16;50050.81;;;-136.69;78.00
21879;BME280;27908;42.708;23.278;2023-08-24T02:57:42;50078.38;;;-136.69;78.28
21879;BME280;27908;42.708;23.278;2023-08-24T03:00:08;50060.66;;;-136.69;77.79
21879;BME280;27908;42.708;23.278;2023-08-24T03:02:35;50072.47;;;-136.69;77.68
21879;BME280;27908;42.708;23.278;2023-08-24T03:05:00;50086.25;;;-136.69;78.17
21879;BME280;27908;42.708;23.278;2023-08-24T03:07:26;50060.66;;;-136.69;78.27
21879;BME280;27908;42.708;23.278;2023-08-24T03:09:51;50039.00;;;-136.69;78.78
21879;BME280;27908;42.708;23.278;2023-08-24T03:12:17;50072.47;;;-136.69;79.27
21879;BME280;27908;42.708;23.278;2023-08-24T03:14:42;50050.81;;;-136.69;79.23
21879;BME280;27908;42.708;23.278;2023-08-24T03:17:08;50066.56;;;-136.69;79.11
21879;BME280;27908;42.708;23.278;2023-08-24T03:19:33;50052.78;;;-136.69;79.23
21879;BME280;27908;42.708;23.278;2023-08-24T03:21:59;50068.53;;;-136.69;79.92
21879;BME280;27908;42.708;23.278;2023-08-24T03:24:24;50040.97;;;-136.69;80.51
21879;BME280;27908;42.708;23.278;2023-08-24T03:26:49;50066.56;;;-136.69;79.93
21879;BME280;27908;42.708;23.278;2023-08-24T03:29:15;50039.00;;;-136.69;79.70
21879;BME280;27908;42.708;23.278;2023-08-24T03:31:40;50058.69;;;-136.69;79.33
21879;BME280;27908;42.708;23.278;2023-08-24T03:34:06;50050.81;;;-136.69;79.15
21879;BME280;27908;42.708;23.278;2023-08-24T03:36:31;50031.13;;;-136.69;78.99
21879;BME280;27908;42.708;23.278;2023-08-24T03:38:57;50086.25;;;-136.69;78.51
21879;BME280;27908;42.708;23.278;2023-08-24T03:41:22;50078.38;;;-136.69;78.20
21879;BME280;27908;42.708;23.278;2023-08-24T03:43:48;50076.41;;;-136.69;78.15
21879;BME280;27908;42.708;23.278;2023-08-24T03:46:13;50068.53;;;-136.69;78.28
21879;BME280;27908;42.708;23.278;2023-08-24T03:48:38;50035.06;;;-136.69;78.38
21879;BME280;27908;42.708;23.278;2023-08-24T03:51:05;50062.63;;;-136.69;78.40
21879;BME280;27908;42.708;23.278;2023-08-24T03:53:30;50062.63;;;-136.69;78.21
21879;BME280;27908;42.708;23.278;2023-08-24T03:55:57;50074.44;;;-136.69;78.45
21879;BME280;27908;42.708;23.278;2023-08-24T03:58:23;50072.47;;;-136.69;78.13
21879;BME280;27908;42.708;23.278;2023-08-24T04:00:49;50068.53;;;-136.69;78.22
21879;BME280;27908;42.708;23.278;2023-08-24T04:03:15;50062.63;;;-136.69;79.11
21879;BME280;27908;42.708;23.278;2023-08-24T04:05:40;50076.41;;;-136.69;79.26
21879;BME280;27908;42.708;23.278;2023-08-24T04:08:06;50046.88;;;-136.69;79.15
21879;BME280;27908;42.708;23.278;2023-08-24T04:10:32;50029.16;;;-136.69;79.05
21879;BME280;27908;42.708;23.278;2023-08-24T04:12:58;50070.50;;;-136.69;79.50
21879;BME280;27908;42.708;23.278;2023-08-24T04:15:23;50088.22;;;-136.69;79.29
21879;BME280;27908;42.708;23.278;2023-08-24T04:17:49;50080.34;;;-136.69;79.53
21879;BME280;27908;42.708;23.278;2023-08-24T04:20:15;50037.03;;;-136.69;78.88
21879;BME280;27908;42.708;23.278;2023-08-24T04:22:41;50060.66;;;-136.69;78.81
21879;BME280;27908;42.708;23.278;2023-08-24T04:25:07;50092.16;;;-136.69;78.79
21879;BME280;27908;42.708;23.278;2023-08-24T04:27:33;50086.25;;;-136.69;78.45
21879;BME280;27908;42.708;23.278;2023-08-24T04:29:58;50046.88;;;-136.69;78.19
21879;BME280;27908;42.708;23.278;2023-08-24T04:32:24;50054.75;;;-136.69;78.14
21879;BME280;27908;42.708;23.278;2023-08-24T04:34:50;50072.47;;;-136.69;78.50
21879;BME280;27908;42.708;23.278;2023-08-24T04:37:15;50080.34;;;-136.69;78.48
21879;BME280;27908;42.708;23.278;2023-08-24T04:39:41;50082.31;;;-136.69;77.74
21879;BME280;27908;42.708;23.278;2023-08-24T04:42:06;50096.09;;;-136.69;77.52
21879;BME280;27908;42.708;23.278;2023-08-24T04:44:32;50094.13;;;-136.69;77.81
21879;BME280;27908;42.708;23.278;2023-08-24T04:46:58;50094.13;;;-136.69;77.90
21879;BME280;27908;42.708;23.278;2023-08-24T04:49:23;50088.22;;;-136.69;77.85
21879;BME280;27908;42.708;23.278;2023-08-24T04:51:49;50074.44;;;-136.69;78.05
21879;BME280;27908;42.708;23.278;2023-08-24T04:54:14;50088.22;;;-136.69;77.89
21879;BME280;27908;42.708;23.278;2023-08-24T04:56:40;50084.28;;;-136.69;77.86
21879;BME280;27908;42.708;23.278;2023-08-24T04:59:05;50090.19;;;-136.69;77.50
21879;BME280;27908;42.708;23.278;2023-08-24T05:01:33;50133.53;;;-136.69;77.05
21879;BME280;27908;42.708;23.278;2023-08-24T05:03:59;50084.28;;;-136.69;76.62
21879;BME280;27908;42.708;23.278;2023-08-24T05:06:24;50127.63;;;-136.69;76.48
21879;BME280;27908;42.708;23.278;2023-08-24T05:08:50;50137.47;;;-136.69;76.08
21879;BME280;27908;42.708;23.278;2023-08-24T05:11:20;50135.50;;;-136.69;75.18
21879;BME280;27908;42.708;23.278;2023-08-24T05:13:46;50113.84;;;-136.69;74.84
21879;BME280;27908;42.708;23.278;2023-08-24T05:16:12;50157.16;;;-136.69;74.66
21879;BME280;27908;42.708;23.278;2023-08-24T05:18:38;50123.69;;;-136.69;74.56
21879;BME280;27908;42.708;23.278;2023-08-24T05:21:04;50139.44;;;-136.69;72.61
21879;BME280;27908;42.708;23.278;2023-08-24T05:23:33;50157.16;;;-136.69;71.94
21879;BME280;27908;42.708;23.278;2023-08-24T05:25:59;50161.09;;;-136.69;70.96
21879;BME280;27908;42.708;23.278;2023-08-24T05:28:29;50210.31;;;-136.69;70.64
21879;BME280;27908;42.708;23.278;2023-08-24T05:30:55;50176.84;;;-136.69;69.11
21879;BME280;27908;42.708;23.278;2023-08-24T05:33:22;50194.56;;;-136.69;68.42
21879;BME280;27908;42.708;23.278;2023-08-24T05:35:49;50184.72;;;-136.69;68.15
21879;BME280;27908;42.708;23.278;2023-08-24T05:38:15;50210.31;;;-136.69;68.67
21879;BME280;27908;42.708;23.278;2023-08-24T05:40:42;50170.94;;;-136.69;69.18
21879;BME280;27908;42.708;23.278;2023-08-24T05:43:09;50198.50;;;-136.69;68.70
21879;BME280;27908;42.708;23.278;2023-08-24T05:45:35;50214.25;;;-136.69;68.82
21879;BME280;27908;42.708;23.278;2023-08-24T05:48:01;50247.72;;;-136.69;67.46
21879;BME280;27908;42.708;23.278;2023-08-24T05:50:26;50257.56;;;-136.69;66.06
21879;BME280;27908;42.708;23.278;2023-08-24T05:52:52;50261.50;;;-136.69;65.67
21879;BME280;27908;42.708;23.278;2023-08-24T05:55:18;50257.56;;;-136.69;65.43
21879;BME280;27908;42.708;23.278;2023-08-24T05:57:43;50259.53;;;-136.69;64.54
21879;BME280;27908;42.708;23.278;2023-08-24T06:00:09;50265.44;;;-136.69;63.88
21879;BME280;27908;42.708;23.278;2023-08-24T06:02:39;50269.38;;;-136.69;62.38
21879;BME280;27908;42.708;23.278;2023-08-24T06:05:05;50255.59;;;-136.69;62.82
21879;BME280;27908;42.708;23.278;2023-08-24T06:07:31;50302.88;;;-136.69;61.87
21879;BME280;27908;42.708;23.278;2023-08-24T06:09:57;50306.81;;;-136.69;60.63
21879;BME280;27908;42.708;23.278;2023-08-24T06:12:23;50318.63;;;-136.69;58.50
21879;BME280;27908;42.708;23.278;2023-08-24T06:14:49;50320.59;;;-136.69;57.34
21879;BME280;27908;42.708;23.278;2023-08-24T06:17:14;50330.44;;;-136.69;56.94
21879;BME280;27908;42.708;23.278;2023-08-24T06:19:39;50338.31;;;-136.69;57.62
21879;BME280;27908;42.708;23.278;2023-08-24T06:22:05;50363.91;;;-136.69;57.84
21879;BME280;27908;42.708;23.278;2023-08-24T06:24:31;50363.91;;;-136.69;57.39
21879;BME280;27908;42.708;23.278;2023-08-24T06:26:56;50413.13;;;-136.69;56.86
21879;BME280;27908;42.708;23.278;2023-08-24T06:29:22;50391.47;;;-136.69;56.98
21879;BME280;27908;42.708;23.278;2023-08-24T06:31:47;50391.47;;;-136.69;55.54
21879;BME280;27908;42.708;23.278;2023-08-24T06:34:13;50389.50;;;-136.69;55.29
21879;BME280;27908;42.708;23.278;2023-08-24T06:36:38;50363.91;;;-136.69;55.42
21879;BME280;27908;42.708;23.278;2023-08-24T06:39:03;50397.38;;;-136.69;54.78
21879;BME280;27908;42.708;23.278;2023-08-24T06:41:33;50428.88;;;-136.69;55.36
21879;BME280;27908;42.708;23.278;2023-08-24T06:43:59;50436.78;;;-136.69;55.08
21879;BME280;27908;42.708;23.278;2023-08-24T06:46:25;50413.13;;;-136.69;54.34
21879;BME280;27908;42.708;23.278;2023-08-24T06:48:50;50450.56;;;-136.69;54.88
21879;BME280;27908;42.708;23.278;2023-08-24T06:51:16;50442.69;;;-136.69;53.74
21879;BME280;27908;42.708;23.278;2023-08-24T06:53:41;50460.41;;;-136.69;53.82
21879;BME280;27908;42.708;23.278;2023-08-24T06:56:07;50438.72;;;-136.69;53.72
21879;BME280;27908;42.708;23.278;2023-08-24T06:58:34;50466.31;;;-136.69;53.14
21879;BME280;27908;42.708;23.278;2023-08-24T07:00:59;50523.41;;;-136.69;52.42
21879;BME280;27908;42.708;23.278;2023-08-24T07:03:25;50503.72;;;-136.69;52.05
21879;BME280;27908;42.708;23.278;2023-08-24T07:05:50;50556.88;;;-136.69;50.68
21879;BME280;27908;42.708;23.278;2023-08-24T07:08:16;50590.38;;;-136.69;50.78
21879;BME280;27908;42.708;23.278;2023-08-24T07:10:42;50643.53;;;-136.69;50.64
21879;BME280;27908;42.708;23.278;2023-08-24T07:13:08;50655.34;;;-136.69;47.81
21879;BME280;27908;42.708;23.278;2023-08-24T07:15:34;50696.72;;;-136.69;47.68
21879;BME280;27908;42.708;23.278;2023-08-24T07:18:02;50663.22;;;-136.69;47.10
21879;BME280;27908;42.708;23.278;2023-08-24T07:20:28;50639.59;;;-136.69;45.75
21879;BME280;27908;42.708;23.278;2023-08-24T07:22:53;50647.47;;;-136.69;45.22
21879;BME280;27908;42.708;23.278;2023-08-24T07:25:19;50667.16;;;-136.69;44.38
21879;BME280;27908;42.708;23.278;2023-08-24T07:27:47;50690.81;;;-136.69;44.68
21879;BME280;27908;42.708;23.278;2023-08-24T07:30:12;50684.91;;;-136.69;44.58
21879;BME280;27908;42.708;23.278;2023-08-24T07:32:38;50700.66;;;-136.69;44.10
21879;BME280;27908;42.708;23.278;2023-08-24T07:35:04;50696.72;;;-136.69;43.79
21879;BME280;27908;42.708;23.278;2023-08-24T07:37:31;50751.84;;;-136.69;43.36
21879;BME280;27908;42.708;23.278;2023-08-24T07:39:57;50743.97;;;-136.69;42.24
21879;BME280;27908;42.708;23.278;2023-08-24T07:42:22;50791.25;;;-136.69;42.70
21879;BME280;27908;42.708;23.278;2023-08-24T07:44:48;50751.84;;;-136.69;41.64
21879;BME280;27908;42.708;23.278;2023-08-24T07:47:14;50785.34;;;-136.69;41.75
21879;BME280;27908;42.708;23.278;2023-08-24T07:49:39;50822.75;;;-136.69;41.24
21879;BME280;27908;42.708;23.278;2023-08-24T07:52:10;50840.47;;;-136.69;41.37
21879;BME280;27908;42.708;23.278;2023-08-24T07:54:36;50858.19;;;-136.69;41.27
21879;BME280;27908;42.708;23.278;2023-08-24T07:57:01;50848.34;;;-136.69;40.96
21879;BME280;27908;42.708;23.278;2023-08-24T07:59:27;50852.28;;;-136.69;41.23
21879;BME280;27908;42.708;23.278;2023-08-24T08:01:52;50877.91;;;-136.69;41.27
21879;BME280;27908;42.708;23.278;2023-08-24T08:04:17;50895.63;;;-136.69;40.89
21879;BME280;27908;42.708;23.278;2023-08-24T08:06:43;50927.13;;;-136.69;40.54
21879;BME280;27908;42.708;23.278;2023-08-24T08:09:08;50982.28;;;-136.69;40.83
21879;BME280;27908;42.708;23.278;2023-08-24T08:11:34;51005.91;;;-136.69;37.04
21879;BME280;27908;42.708;23.278;2023-08-24T08:14:00;50982.28;;;-136.69;36.39
21879;BME280;27908;42.708;23.278;2023-08-24T08:16:26;51017.72;;;-136.69;37.51
21879;BME280;27908;42.708;23.278;2023-08-24T08:18:51;51059.09;;;-136.69;36.23
21879;BME280;27908;42.708;23.278;2023-08-24T08:21:17;51061.06;;;-136.69;35.20
21879;BME280;27908;42.708;23.278;2023-08-24T08:23:43;51072.88;;;-136.69;35.48
21879;BME280;27908;42.708;23.278;2023-08-24T08:26:10;51070.91;;;-136.69;35.85
21879;BME280;27908;42.708;23.278;2023-08-24T08:28:36;51086.66;;;-136.69;34.81
21879;BME280;27908;42.708;23.278;2023-08-24T08:31:01;51143.78;;;-136.69;34.04
21879;BME280;27908;42.708;23.278;2023-08-24T08:33:28;51086.66;;;-136.69;33.91
21879;BME280;27908;42.708;23.278;2023-08-24T08:35:53;51171.34;;;-136.69;33.88
21879;BME280;27908;42.708;23.278;2023-08-24T08:38:18;51193.00;;;-136.69;34.17
21879;BME280;27908;42.708;23.278;2023-08-24T08:40:49;51198.94;;;-136.69;33.21
21879;BME280;27908;42.708;23.278;2023-08-24T08:43:15;51224.53;;;-136.69;32.71
21879;BME280;27908;42.708;23.278;2023-08-24T08:45:41;51194.97;;;-136.69;32.73
21879;BME280;27908;42.708;23.278;2023-08-24T08:48:07;51238.31;;;-136.69;33.55
21879;BME280;27908;42.708;23.278;2023-08-24T08:50:34;51265.88;;;-136.69;32.87
21879;BME280;27908;42.708;23.278;2023-08-24T08:53:00;51315.13;;;-136.69;33.25
21879;BME280;27908;42.708;23.278;2023-08-24T08:55:27;51344.69;;;-136.69;33.63
21879;BME280;27908;42.708;23.278;2023-08-24T08:57:56;51321.03;;;-136.69;33.08
21879;BME280;27908;42.708;23.278;2023-08-24T09:00:23;51382.09;;;-136.69;32.82
21879;BME280;27908;42.708;23.278;2023-08-24T09:02:51;51403.75;;;-136.69;33.20
21879;BME280;27908;42.708;23.278;2023-08-24T09:05:17;51397.84;;;-136.69;32.54
21879;BME280;27908;42.708;23.278;2023-08-24T09:07:45;51378.16;;;-136.69;31.80
21879;BME280;27908;42.708;23.278;2023-08-24T09:10:12;51399.81;;;-136.69;32.08
21879;BME280;27908;42.708;23.278;2023-08-24T09:12:38;51425.44;;;-136.69;32.86
21879;BME280;27908;42.708;23.278;2023-08-24T09:15:07;51445.13;;;-136.69;32.71
21879;BME280;27908;42.708;23.278;2023-08-24T09:17:33;51478.63;;;-136.69;31.92
21879;BME280;27908;42.708;23.278;2023-08-24T09:20:00;51472.72;;;-136.69;31.38
21879;BME280;27908;42.708;23.278;2023-08-24T09:22:35;51498.31;;;-136.69;32.39
21879;BME280;27908;42.708;23.278;2023-08-24T09:25:02;51525.88;;;-136.69;32.18
21879;BME280;27908;42.708;23.278;2023-08-24T09:27:29;51583.00;;;-136.69;31.38
21879;BME280;27908;42.708;23.278;2023-08-24T09:29:54;51636.19;;;-136.69;31.02
21879;BME280;27908;42.708;23.278;2023-08-24T09:32:29;51673.63;;;-136.69;30.36
21879;BME280;27908;42.708;23.278;2023-08-24T09:34:56;51685.44;;;-136.69;30.40
21879;BME280;27908;42.708;23.278;2023-08-24T09:37:21;51740.59;;;-136.69;29.71
21879;BME280;27908;42.708;23.278;2023-08-24T09:39:47;51701.19;;;-136.69;30.15
21879;BME280;27908;42.708;23.278;2023-08-24T09:42:13;51715.00;;;-136.69;29.33
21879;BME280;27908;42.708;23.278;2023-08-24T09:44:45;51703.16;;;-136.69;29.53
21879;BME280;27908;42.708;23.278;2023-08-24T09:47:11;51768.19;;;-136.69;29.29
21879;BME280;27908;42.708;23.278;2023-08-24T09:49:36;51740.59;;;-136.69;29.38
21879;BME280;27908;42.708;23.278;2023-08-24T09:52:02;51780.00;;;-136.69;28.81
21879;BME280;27908;42.708;23.278;2023-08-24T09:54:31;51683.47;;;-136.69;28.86
21879;BME280;27908;42.708;23.278;2023-08-24T09:56:58;51734.69;;;-136.69;28.58
21879;BME280;27908;42.708;23.278;2023-08-24T09:59:26;51738.63;;;-136.69;29.07
21879;BME280;27908;42.708;23.278;2023-08-24T10:01:54;51768.19;;;-136.69;28.68
21879;BME280;27908;42.708;23.278;2023-08-24T10:04:23;51774.09;;;-136.69;27.73
21879;BME280;27908;42.708;23.278;2023-08-24T10:06:52;51803.63;;;-136.69;27.62
21879;BME280;27908;42.708;23.278;2023-08-24T10:09:33;51744.53;;;-136.69;27.64
21879;BME280;27908;42.708;23.278;2023-08-24T10:12:02;51770.16;;;-136.69;27.76
21879;BME280;27908;42.708;23.278;2023-08-24T10:14:32;51805.59;;;-136.69;28.19
21879;BME280;27908;42.708;23.278;2023-08-24T10:17:00;51937.59;;;-136.69;28.27
21879;BME280;27908;42.708;23.278;2023-08-24T10:19:27;51935.63;;;-136.69;25.40
21879;BME280;27908;42.708;23.278;2023-08-24T10:21:56;51965.16;;;-136.69;25.69
21879;BME280;27908;42.708;23.278;2023-08-24T10:24:25;52071.53;;;-136.69;25.48
21879;BME280;27908;42.708;23.278;2023-08-24T10:26:52;52089.28;;;-136.69;25.31
21879;BME280;27908;42.708;23.278;2023-08-24T10:29:20;52175.97;;;-136.69;25.30
21879;BME280;27908;42.708;23.278;2023-08-24T10:31:46;52156.25;;;-136.69;24.92
21879;BME280;27908;42.708;23.278;2023-08-24T10:34:13;52128.69;;;-136.69;24.70
21879;BME280;27908;42.708;23.278;2023-08-24T10:36:40;52087.31;;;-136.69;25.03
21879;BME280;27908;42.708;23.278;2023-08-24T10:39:06;52122.78;;;-136.69;25.16
21879;BME280;27908;42.708;23.278;2023-08-24T10:42:04;52095.19;;;-136.69;25.65
21879;BME280;27908;42.708;23.278;2023-08-24T10:44:37;52043.97;;;-136.69;25.13
21879;BME280;27908;42.708;23.278;2023-08-24T10:47:12;51927.75;;;-136.69;25.57
21879;BME280;27908;42.708;23.278;2023-08-24T10:49:39;51904.09;;;-136.69;26.40
21879;BME280;27908;42.708;23.278;2023-08-24T10:52:18;51764.22;;;-136.69;28.20
21879;BME280;27908;42.708;23.278;2023-08-24T10:54:46;51608.63;;;-136.69;29.72
21879;BME280;27908;42.708;23.278;2023-08-24T10:57:22;51602.72;;;-136.69;30.49
21879;BME280;27908;42.708;23.278;2023-08-24T11:02:52;51421.50;;;-136.69;31.54
21879;BME280;27908;42.708;23.278;2023-08-24T11:05:29;51340.75;;;-136.69;30.47
21879;BME280;27908;42.708;23.278;2023-08-24T11:08:05;51244.22;;;-136.69;30.40
21879;BME280;27908;42.708;23.278;2023-08-24T11:13:20;51204.84;;;-136.69;30.64
21879;BME280;27908;42.708;23.278;2023-08-24T11:15:48;51185.13;;;-136.69;30.72
21879;BME280;27908;42.708;23.278;2023-08-24T11:18:25;51187.09;;;-136.69;30.84
21879;BME280;27908;42.708;23.278;2023-08-24T11:20:55;51181.19;;;-136.69;30.89
21879;BME280;27908;42.708;23.278;2023-08-24T11:23:23;51212.72;;;-136.69;30.97
21879;BME280;27908;42.708;23.278;2023-08-24T11:25:50;51179.22;;;-136.69;31.24
21879;BME280;27908;42.708;23.278;2023-08-24T11:28:22;51159.53;;;-136.69;31.56
21879;BME280;27908;42.708;23.278;2023-08-24T11:30:48;51185.13;;;-136.69;31.85
21879;BME280;27908;42.708;23.278;2023-08-24T11:33:16;51145.75;;;-136.69;31.55
21879;BME280;27908;42.708;23.278;2023-08-24T11:35:44;51159.53;;;-136.69;31.66
21879;BME280;27908;42.708;23.278;2023-08-24T11:38:09;51163.47;;;-136.69;31.82
21879;BME280;27908;42.708;23.278;2023-08-24T11:40:35;51214.69;;;-136.69;31.75
21879;BME280;27908;42.708;23.278;2023-08-24T11:43:00;51139.84;;;-136.69;32.76
21879;BME280;27908;42.708;23.278;2023-08-24T11:45:35;51110.28;;;-136.69;33.03
21879;BME280;27908;42.708;23.278;2023-08-24T11:48:02;51055.16;;;-136.69;34.57
21879;BME280;27908;42.708;23.278;2023-08-24T11:50:29;51061.06;;;-136.69;34.88
21879;BME280;27908;42.708;23.278;2023-08-24T11:52:55;51017.72;;;-136.69;36.10
21879;BME280;27908;42.708;23.278;2023-08-24T11:55:22;50998.03;;;-136.69;36.66
21879;BME280;27908;42.708;23.278;2023-08-24T11:57:47;50950.75;;;-136.69;37.54
21879;BME280;27908;42.708;23.278;2023-08-24T12:00:13;50970.47;;;-136.69;37.89
21879;BME280;27908;42.708;23.278;2023-08-24T12:02:40;50950.75;;;-136.69;37.93
21879;BME280;27908;42.708;23.278;2023-08-24T12:05:06;50917.28;;;-136.69;38.62
21879;BME280;27908;42.708;23.278;2023-08-24T12:07:32;50921.22;;;-136.69;38.64
21879;BME280;27908;42.708;23.278;2023-08-24T12:10:01;50940.91;;;-136.69;38.71
21879;BME280;27908;42.708;23.278;2023-08-24T12:12:27;50952.72;;;-136.69;37.98
21879;BME280;27908;42.708;23.278;2023-08-24T12:14:55;50958.63;;;-136.69;37.97
21879;BME280;27908;42.708;23.278;2023-08-24T12:17:20;51011.81;;;-136.69;37.60
21879;BME280;27908;42.708;23.278;2023-08-24T12:19:57;50972.44;;;-136.69;36.84
21879;BME280;27908;42.708;23.278;2023-08-24T12:22:22;51019.69;;;-136.69;37.38
21879;BME280;27908;42.708;23.278;2023-08-24T12:24:48;51120.13;;;-136.69;36.54
21879;BME280;27908;42.708;23.278;2023-08-24T12:27:23;51023.63;;;-136.69;37.08
21879;BME280;27908;42.708;23.278;2023-08-24T12:29:49;51045.28;;;-136.69;35.74
21879;BME280;27908;42.708;23.278;2023-08-24T12:32:15;51137.88;;;-136.69;35.66
21879;BME280;27908;42.708;23.278;2023-08-24T12:34:41;51110.28;;;-136.69;34.89
21879;BME280;27908;42.708;23.278;2023-08-24T12:37:08;51147.72;;;-136.69;35.07